Time;durP1;ratioP1;P1;durP2;ratioP2;P2;SDS_P1;SDS_P2;PMS_P1;PMS_P2;Temp;Humidity;BMP_temperature;BMP_pressure;BME280_temperature;BME280_humidity;BME280_pressure;Samples;Min_cycle;Max_cycle;Signal;HPM_P1;HPM_P2
2023/03/19 00:01:05;;;;;;;;;13.60;13.20;;;;;4.81;38.29;99648.75;5025319;28;8872;-80
2023/03/19 00:03:42;;;;;;;;;15.20;14.80;;;;;4.98;37.81;99652.31;5047031;28;9693;-81
2023/03/19 00:06:11;;;;;;;;;17.60;17.60;;;;;5.00;37.41;99653.19;5045455;28;8857;-80
2023/03/19 00:08:40;;;;;;;;;18.00;16.60;;;;;5.09;37.38;99658.44;5037882;28;8839;-80
2023/03/19 00:11:11;;;;;;;;;14.00;10.20;;;;;5.12;37.23;99640.19;5026959;28;8887;-79
2023/03/19 00:13:41;;;;;;;;;18.00;15.20;;;;;5.03;37.64;99640.16;5036430;28;8945;-81
2023/03/19 00:16:10;;;;;;;;;18.00;17.40;;;;;5.09;37.39;99634.09;5062808;28;8872;-82
2023/03/19 00:18:39;;;;;;;;;18.80;14.00;;;;;5.18;37.24;99641.09;5041051;28;8893;-81
2023/03/19 00:21:08;;;;;;;;;15.00;13.80;;;;;5.21;37.22;99651.50;5026819;28;8878;-81
2023/03/19 00:23:37;;;;;;;;;18.40;17.00;;;;;5.12;37.36;99645.41;5037491;28;8845;-81
2023/03/19 00:26:06;;;;;;;;;14.40;14.00;;;;;5.26;36.98;99644.56;5047209;28;8910;-80
2023/03/19 00:28:36;;;;;;;;;12.80;12.80;;;;;5.35;36.80;99647.22;5044643;28;8902;-80
2023/03/19 00:31:11;;;;;;;;;13.00;13.00;;;;;5.39;36.57;99648.97;5046871;28;8876;-80
2023/03/19 00:33:56;;;;;;;;;8.00;8.00;;;;;5.25;37.04;99643.72;5121726;27;13466;-81
2023/03/19 00:36:26;;;;;;;;;16.00;13.40;;;;;5.52;36.25;99648.13;5105690;28;8905;-82
2023/03/19 00:38:55;;;;;;;;;14.40;13.00;;;;;5.64;35.92;99654.22;5083331;28;8873;-80
2023/03/19 00:41:24;;;;;;;;;14.60;11.40;;;;;5.75;35.96;99652.50;5084148;28;8967;-80
2023/03/19 00:43:54;;;;;;;;;16.40;12.40;;;;;5.72;35.92;99645.53;5096298;28;8960;-80
2023/03/19 00:46:23;;;;;;;;;14.60;13.80;;;;;5.64;35.46;99634.25;5105804;28;8889;-81
2023/03/19 00:48:54;;;;;;;;;13.40;11.00;;;;;5.65;35.66;99637.72;5104773;28;8867;-80
2023/03/19 00:51:24;;;;;;;;;15.80;14.80;;;;;5.64;36.04;99630.75;5054310;28;9707;-80
2023/03/19 00:53:53;;;;;;;;;12.80;12.20;;;;;5.69;35.72;99626.41;5104737;28;8843;-81
2023/03/19 00:56:22;;;;;;;;;16.40;13.00;;;;;5.71;35.60;99624.66;5100827;28;8849;-80
2023/03/19 00:58:51;;;;;;;;;15.00;15.00;;;;;5.78;35.50;99634.25;5083707;28;8938;-79
2023/03/19 01:01:20;;;;;;;;;16.20;15.00;;;;;5.48;35.85;99622.91;5101223;28;8869;-81
2023/03/19 01:03:49;;;;;;;;;12.80;10.40;;;;;5.64;35.76;99609.88;5091028;28;8960;-80
2023/03/19 01:06:20;;;;;;;;;12.00;11.40;;;;;5.71;35.41;99616.84;5100981;28;8840;-81
2023/03/19 01:08:48;;;;;;;;;15.80;14.00;;;;;5.75;35.62;99615.97;5075980;28;8928;-82
2023/03/19 01:11:18;;;;;;;;;13.40;11.00;;;;;5.77;35.37;99621.19;5105559;28;8847;-79
2023/03/19 01:13:47;;;;;;;;;13.40;13.20;;;;;5.65;35.21;99619.47;5101517;28;9661;-80
2023/03/19 01:16:17;;;;;;;;;14.60;13.40;;;;;5.72;35.22;99629.88;5084262;28;8878;-79
2023/03/19 01:18:46;;;;;;;;;18.00;14.00;;;;;5.59;35.42;99629.91;5102723;28;8955;-81
2023/03/19 01:21:15;;;;;;;;;14.20;14.20;;;;;5.73;35.04;99625.53;5093649;28;8944;-82
2023/03/19 01:23:50;;;;;;;;;11.60;11.60;;;;;5.76;35.12;99632.50;5116027;28;8854;-80
2023/03/19 01:26:21;;;;;;;;;17.40;13.40;;;;;5.64;35.14;99630.75;5117018;28;8854;-81
2023/03/19 01:28:53;;;;;;;;;12.20;11.00;;;;;5.70;35.16;99628.16;5047473;28;8898;-81
2023/03/19 01:31:23;;;;;;;;;13.40;13.00;;;;;5.67;35.38;99629.00;5099717;28;8935;-80
2023/03/19 01:34:00;;;;;;;;;14.40;14.00;;;;;5.66;35.20;99623.78;5081451;28;8877;-80
2023/03/19 01:36:37;;;;;;;;;14.20;11.60;;;;;5.61;35.59;99625.53;5082055;28;8853;-82
2023/03/19 01:39:09;;;;;;;;;13.60;12.60;;;;;5.59;35.52;99616.84;5061750;28;8874;-81
2023/03/19 01:41:38;;;;;;;;;9.80;9.80;;;;;5.38;35.79;99621.19;5103208;28;8966;-81
2023/03/19 01:44:28;;;;;;;;;13.60;13.60;;;;;5.39;35.42;99616.81;5079712;28;8988;-81
2023/03/19 01:47:24;;;;;;;;;9.80;8.40;;;;;5.32;35.68;99615.94;5070834;28;8843;-80
2023/03/19 01:50:23;;;;;;;;;13.00;13.00;;;;;5.29;35.73;99613.31;5071219;28;9079;-81
2023/03/19 01:53:13;;;;;;;;;12.40;9.60;;;;;5.26;35.84;99597.66;5074146;28;9649;-82
2023/03/19 01:56:12;;;;;;;;;6.40;6.00;;;;;5.29;35.69;99598.53;5090863;28;8875;-81
2023/03/19 01:59:11;;;;;;;;;13.20;10.20;;;;;5.26;35.78;99595.03;5046607;28;8876;-80
2023/03/19 02:02:10;;;;;;;;;11.20;11.20;;;;;5.21;35.65;99595.06;5043949;28;8988;-80
2023/03/19 02:04:43;;;;;;;;;10.00;9.00;;;;;5.19;35.84;99594.19;5047679;28;8846;-81
2023/03/19 02:07:13;;;;;;;;;8.60;8.60;;;;;5.26;35.62;99584.63;5048019;28;8865;-81
2023/03/19 02:09:43;;;;;;;;;14.20;11.80;;;;;5.13;35.84;99582.00;5052239;28;8934;-79
2023/03/19 02:12:13;;;;;;;;;17.60;12.80;;;;;5.08;35.85;99578.53;5053884;28;8853;-82
2023/03/19 02:14:42;;;;;;;;;13.80;13.80;;;;;4.99;35.82;99573.28;5053268;28;8917;-81
2023/03/19 02:17:13;;;;;;;;;10.00;9.80;;;;;4.88;36.29;99580.22;5068630;28;8880;-81
2023/03/19 02:19:50;;;;;;;;;10.80;10.80;;;;;4.87;36.06;99575.88;5073654;28;8878;-80
2023/03/19 02:22:22;;;;;;;;;14.40;14.00;;;;;4.86;36.16;99580.19;5072762;28;8826;-80
2023/03/19 02:24:56;;;;;;;;;1.40;1.40;;;;;4.88;36.29;99580.22;5072582;28;8892;-79
2023/03/19 02:27:26;;;;;;;;;13.40;10.80;;;;;4.83;36.31;99580.22;5089325;28;8853;-82
2023/03/19 02:29:55;;;;;;;;;11.60;11.60;;;;;4.84;36.08;99581.94;5105685;28;8874;-79
2023/03/19 02:32:25;;;;;;;;;14.60;13.00;;;;;4.90;36.08;99581.94;5070372;28;8861;-79
2023/03/19 02:34:54;;;;;;;;;15.80;14.00;;;;;4.94;36.37;99585.41;5088244;28;8888;-82
2023/03/19 02:37:28;;;;;;;;;13.60;8.60;;;;;4.90;36.21;99584.53;5089613;28;8856;-80
2023/03/19 02:40:06;;;;;;;;;7.20;5.20;;;;;4.98;35.97;99582.00;5088331;28;8854;-81
2023/03/19 02:42:36;;;;;;;;;14.60;9.80;;;;;5.02;35.83;99581.13;5089423;28;8890;-80
2023/03/19 02:45:07;;;;;;;;;10.80;10.60;;;;;5.10;35.66;99568.97;5079977;28;8877;-80
2023/03/19 02:47:36;;;;;;;;;12.40;10.40;;;;;5.04;35.87;99574.19;5052534;28;8927;-80
2023/03/19 02:50:06;;;;;;;;;13.80;12.80;;;;;4.97;35.88;99564.59;5077376;28;9047;-81
2023/03/19 02:52:35;;;;;;;;;13.40;10.20;;;;;4.91;36.00;99564.59;5050883;28;8866;-80
2023/03/19 02:55:05;;;;;;;;;13.60;11.00;;;;;4.80;35.95;99563.69;5067609;28;8862;-81
2023/03/19 02:57:36;;;;;;;;;13.20;11.40;;;;;4.80;36.18;99564.56;5084920;28;9675;-79
2023/03/19 03:00:09;;;;;;;;;11.60;10.40;;;;;4.78;36.08;99566.28;5068762;28;8900;-80
2023/03/19 03:02:39;;;;;;;;;12.20;10.40;;;;;4.89;36.33;99568.94;5068735;28;8865;-81
2023/03/19 03:05:09;;;;;;;;;10.60;10.40;;;;;4.95;35.66;99562.00;5092975;28;8835;-81
2023/03/19 03:07:39;;;;;;;;;15.40;13.00;;;;;4.73;35.97;99557.59;5112230;28;9608;-80
2023/03/19 03:10:09;;;;;;;;;10.40;9.60;;;;;4.74;35.63;99570.63;5105157;28;8851;-81
2023/03/19 03:12:39;;;;;;;;;13.20;11.20;;;;;4.87;35.33;99566.31;5105010;28;8846;-80
2023/03/19 03:15:09;;;;;;;;;13.00;9.80;;;;;5.01;35.25;99562.88;5089065;28;8863;-79
2023/03/19 03:17:38;;;;;;;;;11.60;9.00;;;;;4.73;35.17;99555.88;5069094;28;8889;-80
2023/03/19 03:20:10;;;;;;;;;13.40;11.60;;;;;4.72;35.56;99561.06;5068558;28;8872;-80
2023/03/19 03:22:39;;;;;;;;;14.00;11.00;;;;;4.68;35.78;99549.78;5050493;28;8854;-79
2023/03/19 03:25:10;;;;;;;;;11.00;11.00;;;;;4.81;35.27;99548.09;5067594;28;8861;-81
2023/03/19 03:27:40;;;;;;;;;11.80;10.20;;;;;4.79;35.50;99559.34;5050795;28;8854;-80
2023/03/19 03:30:10;;;;;;;;;11.00;10.20;;;;;4.81;35.49;99552.41;5086025;28;8856;-80
2023/03/19 03:32:40;;;;;;;;;11.00;9.20;;;;;4.93;34.83;99558.50;5087284;28;8949;-80
2023/03/19 03:35:10;;;;;;;;;8.20;8.20;;;;;4.91;34.91;99559.38;5087199;28;8843;-80
2023/03/19 03:37:39;;;;;;;;;7.80;7.20;;;;;4.85;35.33;99552.44;5083497;28;8939;-79
2023/03/19 03:40:12;;;;;;;;;10.20;10.20;;;;;4.91;34.93;99554.19;5050810;28;9642;-79
2023/03/19 03:42:44;;;;;;;;;10.20;10.20;;;;;4.92;35.24;99548.97;5066959;28;8909;-80
2023/03/19 03:45:14;;;;;;;;;12.60;10.40;;;;;4.81;35.28;99548.09;5068163;28;9664;-80
2023/03/19 03:47:45;;;;;;;;;12.40;10.00;;;;;4.84;35.25;99544.59;5066821;28;8880;-78
2023/03/19 03:50:14;;;;;;;;;9.80;9.80;;;;;4.74;35.77;99548.94;5050199;28;8864;-81
2023/03/19 03:52:43;;;;;;;;;12.60;11.40;;;;;4.70;35.48;99541.97;5100933;28;8866;-81
2023/03/19 03:55:12;;;;;;;;;11.60;9.80;;;;;4.74;35.72;99551.53;5018907;28;8975;-80
2023/03/19 03:57:41;;;;;;;;;12.20;10.80;;;;;4.49;36.14;99558.38;5089118;28;8860;-79
2023/03/19 04:00:13;;;;;;;;;8.80;8.80;;;;;4.62;35.79;99543.66;5088778;28;8859;-80
2023/03/19 04:02:43;;;;;;;;;15.20;13.80;;;;;4.44;36.25;99545.34;5088421;28;8852;-79
2023/03/19 04:05:16;;;;;;;;;11.80;11.20;;;;;4.51;36.09;99548.84;5103589;28;8856;-79
2023/03/19 04:07:45;;;;;;;;;10.60;8.60;;;;;4.52;35.72;99541.03;5052152;28;8965;-80
2023/03/19 04:10:15;;;;;;;;;10.80;9.20;;;;;4.34;35.83;99543.59;5020181;28;8878;-80
2023/03/19 04:12:44;;;;;;;;;12.40;12.40;;;;;4.38;36.24;99537.53;5084410;28;8986;-79
2023/03/19 04:15:15;;;;;;;;;16.40;10.00;;;;;4.37;35.71;99538.38;5066702;28;8858;-80
2023/03/19 04:17:46;;;;;;;;;9.80;9.80;;;;;4.38;36.31;99539.25;5049964;28;8870;-80
2023/03/19 04:20:17;;;;;;;;;9.80;9.80;;;;;4.33;35.99;99534.03;5056562;28;9698;-81
2023/03/19 04:22:46;;;;;;;;;10.00;9.20;;;;;4.21;36.50;99542.66;5035903;28;8916;-81
2023/03/19 04:25:17;;;;;;;;;9.00;9.00;;;;;4.33;35.91;99549.63;5103058;28;8863;-81
2023/03/19 04:27:46;;;;;;;;;11.20;8.60;;;;;4.33;35.85;99545.28;5070366;28;8882;-81
2023/03/19 04:30:17;;;;;;;;;12.80;9.40;;;;;4.42;36.07;99548.81;5072639;28;9623;-80
2023/03/19 04:32:47;;;;;;;;;9.20;9.20;;;;;4.31;36.24;99553.97;5032314;28;8874;-80
2023/03/19 04:35:17;;;;;;;;;9.20;8.60;;;;;4.44;36.01;99552.28;5066457;28;8842;-80
2023/03/19 04:37:47;;;;;;;;;10.00;9.00;;;;;4.32;36.30;99548.78;5067931;28;8878;-79
2023/03/19 04:40:18;;;;;;;;;12.80;10.80;;;;;4.29;36.37;99546.16;5066649;28;8954;-80
2023/03/19 04:42:48;;;;;;;;;11.00;11.00;;;;;4.22;36.22;99539.16;5083344;28;8850;-81
2023/03/19 04:45:31;;;;;;;;;10.00;10.00;;;;;4.12;36.39;99542.59;5051297;28;8859;-79
2023/03/19 04:48:02;;;;;;;;;11.80;11.80;;;;;4.22;36.67;99539.16;5082904;28;8858;-79
2023/03/19 04:50:33;;;;;;;;;19.00;12.40;;;;;4.10;36.71;99544.31;5054467;28;8850;-80
2023/03/19 04:53:03;;;;;;;;;10.60;10.60;;;;;4.15;35.90;99540.88;5078037;28;8858;-80
2023/03/19 04:55:32;;;;;;;;;10.00;10.00;;;;;4.27;36.07;99541.81;5066322;28;8874;-80
2023/03/19 04:58:13;;;;;;;;;10.00;9.60;;;;;4.16;35.85;99547.81;5085460;28;8858;-80
2023/03/19 05:00:46;;;;;;;;;13.80;12.20;;;;;4.20;35.84;99538.28;5082689;28;8854;-80
2023/03/19 05:03:20;;;;;;;;;13.20;12.60;;;;;4.25;35.98;99543.53;5065866;28;8850;-79
2023/03/19 05:05:50;;;;;;;;;13.80;11.80;;;;;4.22;35.91;99546.97;4995570;28;8975;-78
2023/03/19 05:08:18;;;;;;;;;13.00;9.00;;;;;4.30;36.04;99542.69;5044693;28;8849;-81
2023/03/19 05:10:47;;;;;;;;;12.60;12.40;;;;;4.29;35.92;99551.34;5059137;28;8945;-80
2023/03/19 05:13:16;;;;;;;;;18.20;13.80;;;;;4.43;35.55;99540.97;5064568;28;8879;-81
2023/03/19 05:15:54;;;;;;;;;10.40;9.40;;;;;4.40;36.21;99540.13;5081085;28;8868;-81
2023/03/19 05:18:23;;;;;;;;;12.60;10.60;;;;;4.39;35.71;99543.59;5063812;28;8942;-80
2023/03/19 05:20:54;;;;;;;;;10.60;9.20;;;;;4.51;35.69;99549.72;5051201;28;8836;-79
2023/03/19 05:23:25;;;;;;;;;10.60;10.60;;;;;4.42;35.77;99557.47;5028224;28;8862;-80
2023/03/19 05:26:02;;;;;;;;;19.60;16.60;;;;;4.48;36.06;99561.84;4966249;28;8846;-81
2023/03/19 05:28:49;;;;;;;;;19.60;17.20;;;;;4.44;35.93;99549.69;5000511;28;9090;-82
2023/03/19 05:31:24;;;;;;;;;12.20;10.60;;;;;4.60;35.61;99556.66;5011322;28;8842;-79
2023/03/19 05:33:54;;;;;;;;;12.00;10.40;;;;;4.64;35.23;99560.16;5028674;28;8838;-81
2023/03/19 05:36:24;;;;;;;;;12.80;10.40;;;;;4.80;35.09;99568.91;5024449;28;8902;-80
2023/03/19 05:39:00;;;;;;;;;13.00;12.20;;;;;4.81;35.22;99571.53;5088295;28;8961;-80
2023/03/19 05:41:34;;;;;;;;;9.60;9.60;;;;;4.94;34.88;99575.91;5071499;28;8832;-80
2023/03/19 05:44:06;;;;;;;;;13.40;12.80;;;;;4.93;35.06;99570.69;5088576;28;8991;-80
2023/03/19 05:46:48;;;;;;;;;8.20;8.20;;;;;5.03;34.61;99571.56;5027389;28;8855;-81
2023/03/19 05:49:18;;;;;;;;;13.60;10.00;;;;;5.13;34.47;99568.97;5086504;28;8840;-80
2023/03/19 05:51:47;;;;;;;;;12.20;10.40;;;;;5.22;34.26;99568.09;5071890;28;8839;-80
2023/03/19 05:54:16;;;;;;;;;9.60;9.00;;;;;5.38;34.05;99571.66;5071398;28;9424;-80
2023/03/19 05:56:53;;;;;;;;;14.00;11.80;;;;;5.46;33.77;99564.69;5072358;28;8850;-80
2023/03/19 05:59:35;;;;;;;;;12.60;11.60;;;;;5.53;33.36;99568.19;5073814;28;8943;-80
2023/03/19 06:02:40;;;;;;;;;10.60;10.60;;;;;5.70;33.51;99570.78;5030887;28;8880;-79
2023/03/19 06:05:35;;;;;;;;;13.40;13.40;;;;;5.89;33.04;99558.59;5010423;28;8895;-81
2023/03/19 06:08:31;;;;;;;;;15.20;13.20;;;;;6.05;33.24;99569.84;5008708;28;8931;-81
2023/03/19 06:11:06;;;;;;;;;14.80;11.40;;;;;6.13;32.73;99570.69;5055301;28;8950;-81
2023/03/19 06:13:36;;;;;;;;;14.40;12.20;;;;;6.15;32.51;99562.88;5038178;28;8836;-80
2023/03/19 06:16:09;;;;;;;;;10.00;10.00;;;;;6.18;32.82;99562.88;5012806;28;8952;-80
2023/03/19 06:18:44;;;;;;;;;12.80;10.20;;;;;6.28;33.03;99580.22;5035816;28;8848;-81
2023/03/19 06:21:15;;;;;;;;;15.60;14.60;;;;;6.34;32.03;99588.03;5034470;28;8840;-80
2023/03/19 06:23:44;;;;;;;;;12.20;11.20;;;;;6.49;31.87;99600.19;5007785;28;8841;-80
2023/03/19 06:26:17;;;;;;;;;9.60;9.60;;;;;6.73;31.83;99600.97;5003997;28;8958;-81
2023/03/19 06:28:54;;;;;;;;;10.00;10.00;;;;;6.78;32.28;99594.00;5032994;28;8840;-81
2023/03/19 06:31:23;;;;;;;;;14.00;12.20;;;;;7.02;32.03;99595.63;5032512;28;8836;-80
2023/03/19 06:34:00;;;;;;;;;13.40;10.80;;;;;7.04;31.60;99602.59;4987097;28;8874;-79
2023/03/19 06:36:48;;;;;;;;;8.40;8.40;;;;;7.29;31.29;99612.91;5045055;28;8886;-81
2023/03/19 06:39:19;;;;;;;;;15.20;10.60;;;;;7.47;30.99;99612.75;5046371;28;8852;-79
2023/03/19 06:41:48;;;;;;;;;14.60;12.00;;;;;7.60;31.46;99612.69;5091405;28;8860;-81
2023/03/19 06:44:21;;;;;;;;;14.80;14.80;;;;;7.68;30.50;99616.97;5090454;28;8851;-79
2023/03/19 06:46:50;;;;;;;;;13.00;11.40;;;;;7.91;30.86;99625.50;5090430;28;8860;-80
2023/03/19 06:49:21;;;;;;;;;12.20;12.20;;;;;8.15;30.44;99621.78;5082059;28;8862;-80
2023/03/19 06:51:49;;;;;;;;;13.20;11.40;;;;;8.24;30.44;99612.09;5069999;28;8873;-80
2023/03/19 06:54:18;;;;;;;;;25.20;22.40;;;;;8.40;29.57;99618.09;5069270;28;8934;-79
2023/03/19 06:56:47;;;;;;;;;29.40;25.00;;;;;8.52;29.88;99617.06;5069243;28;8866;-80
2023/03/19 06:59:17;;;;;;;;;11.40;11.40;;;;;8.56;29.33;99623.16;5071219;28;8986;-79
2023/03/19 07:01:46;;;;;;;;;12.20;12.20;;;;;8.74;29.73;99629.91;5088248;28;8856;-79
2023/03/19 07:04:15;;;;;;;;;8.80;8.80;;;;;8.89;29.04;99626.22;5084092;28;8884;-80
2023/03/19 07:06:45;;;;;;;;;19.20;17.00;;;;;8.95;29.08;99623.53;5069854;28;8866;-82
2023/03/19 07:09:14;;;;;;;;;15.00;12.60;;;;;9.08;29.23;99625.09;5069338;28;8859;-79
2023/03/19 07:11:43;;;;;;;;;15.80;13.20;;;;;9.03;28.63;99619.94;5069249;28;8890;-80
2023/03/19 07:14:12;;;;;;;;;11.20;11.20;;;;;9.14;28.79;99618.91;5069055;28;8854;-80
2023/03/19 07:16:41;;;;;;;;;12.00;12.00;;;;;9.36;28.69;99627.34;5041986;28;9715;-80
2023/03/19 07:19:10;;;;;;;;;18.00;15.20;;;;;9.46;28.54;99641.19;5067563;28;8935;-80
2023/03/19 07:21:39;;;;;;;;;39.50;34.25;;;;;9.64;28.41;99630.44;5026364;28;8889;-80
2023/03/19 07:24:09;;;;;;;;;17.80;14.60;;;;;9.88;28.35;99626.56;5038765;28;8842;-79
2023/03/19 07:26:38;;;;;;;;;8.80;6.00;;;;;9.82;28.05;99626.66;5046395;28;8978;-80
2023/03/19 07:29:07;;;;;;;;;9.20;8.40;;;;;9.94;27.99;99621.19;5030208;28;8857;-81
2023/03/19 07:31:40;;;;;;;;;14.80;11.40;;;;;10.18;27.92;99627.78;5028794;28;8870;-81
2023/03/19 07:34:09;;;;;;;;;14.00;12.20;;;;;10.32;27.79;99619.63;5046430;28;8908;-82
2023/03/19 07:36:38;;;;;;;;;14.40;12.00;;;;;10.51;27.50;99625.41;5006568;28;8983;-81
2023/03/19 07:39:09;;;;;;;;;9.00;9.00;;;;;10.71;27.35;99622.41;5006619;28;8842;-81
2023/03/19 07:41:37;;;;;;;;;10.20;10.20;;;;;10.91;27.26;99614.09;4957981;28;8921;-79
2023/03/19 07:44:07;;;;;;;;;20.80;17.80;;;;;10.88;27.13;99608.94;5006694;28;8947;-80
2023/03/19 07:46:36;;;;;;;;;12.40;11.80;;;;;10.84;27.13;99614.28;4989999;28;8874;-80
2023/03/19 07:49:05;;;;;;;;;14.20;10.20;;;;;10.98;27.02;99614.84;5005385;28;8850;-80
2023/03/19 07:51:34;;;;;;;;;9.80;8.80;;;;;10.95;26.95;99607.91;5006505;28;9006;-81
2023/03/19 07:54:03;;;;;;;;;13.00;10.20;;;;;10.69;27.21;99613.69;5006258;28;8876;-81
2023/03/19 07:56:33;;;;;;;;;10.80;9.40;;;;;10.79;26.99;99619.63;5006262;28;8900;-81
2023/03/19 07:59:03;;;;;;;;;16.20;11.40;;;;;11.00;26.88;99622.72;4994486;28;8848;-82
2023/03/19 08:01:31;;;;;;;;;11.40;11.20;;;;;11.14;26.73;99636.41;5016282;28;8923;-80
2023/03/19 08:04:01;;;;;;;;;12.40;11.80;;;;;11.34;26.31;99628.09;5012751;28;8893;-81
2023/03/19 08:06:29;;;;;;;;;15.60;12.00;;;;;11.36;26.36;99628.91;5046568;28;8846;-81
2023/03/19 08:08:59;;;;;;;;;13.00;13.00;;;;;11.43;26.56;99629.66;5061348;28;8828;-83
2023/03/19 08:11:28;;;;;;;;;18.20;17.80;;;;;11.53;26.36;99637.28;5090684;28;9623;-82
2023/03/19 08:13:59;;;;;;;;;21.60;20.60;;;;;11.64;26.25;99637.03;5090169;28;8894;-80
2023/03/19 08:16:28;;;;;;;;;17.20;17.20;;;;;11.77;26.93;99641.09;5087651;28;8859;-81
2023/03/19 08:18:57;;;;;;;;;14.80;14.00;;;;;11.78;26.58;99644.59;5087401;28;8855;-82
2023/03/19 08:21:26;;;;;;;;;12.00;12.00;;;;;12.00;25.94;99644.97;5071845;28;8874;-82
2023/03/19 08:23:55;;;;;;;;;10.00;8.20;;;;;12.21;25.92;99640.06;5095296;28;8855;-79
2023/03/19 08:26:25;;;;;;;;;15.40;13.80;;;;;12.09;25.63;99642.09;5058684;28;8898;-82
2023/03/19 08:28:54;;;;;;;;;13.20;12.00;;;;;12.23;25.60;99644.38;5087250;28;8839;-81
2023/03/19 08:31:24;;;;;;;;;13.20;12.40;;;;;12.44;25.81;99642.09;5078744;28;8878;-83
2023/03/19 08:33:54;;;;;;;;;15.00;14.00;;;;;12.58;25.66;99642.59;5078992;28;8862;-81
2023/03/19 08:36:23;;;;;;;;;12.40;12.40;;;;;12.57;25.66;99642.63;5036198;28;8872;-82
2023/03/19 08:38:53;;;;;;;;;12.60;12.40;;;;;12.58;25.43;99636.41;5028087;28;8861;-81
2023/03/19 08:41:22;;;;;;;;;12.80;12.00;;;;;12.71;25.16;99638.69;5045864;28;9713;-82
2023/03/19 08:43:52;;;;;;;;;13.20;13.20;;;;;12.70;25.43;99633.44;5044634;28;8877;-82
2023/03/19 08:46:21;;;;;;;;;15.80;15.00;;;;;12.85;25.44;99640.97;5029443;28;8947;-81
2023/03/19 08:48:52;;;;;;;;;13.40;12.60;;;;;12.89;25.30;99641.72;5038405;28;8920;-82
2023/03/19 08:51:22;;;;;;;;;12.60;12.60;;;;;12.92;25.25;99644.28;5009570;28;8951;-82
2023/03/19 08:53:51;;;;;;;;;16.20;15.00;;;;;12.87;25.48;99647.03;5019918;28;8892;-83
2023/03/19 08:56:20;;;;;;;;;14.80;13.20;;;;;13.05;25.33;99639.50;5049651;28;8963;-82
2023/03/19 08:58:49;;;;;;;;;13.00;13.00;;;;;13.14;25.23;99641.00;5040177;28;8876;-81
2023/03/19 09:01:19;;;;;;;;;15.40;13.60;;;;;13.23;25.24;99636.31;5049340;28;8838;-82
2023/03/19 09:03:48;;;;;;;;;14.60;13.40;;;;;13.54;24.94;99642.41;5034855;28;8839;-81
2023/03/19 09:06:19;;;;;;;;;20.80;18.00;;;;;13.76;24.95;99640.81;5009910;28;8940;-82
2023/03/19 09:08:48;;;;;;;;;14.40;14.00;;;;;13.60;24.90;99637.81;5011944;28;8888;-80
2023/03/19 09:11:16;;;;;;;;;14.40;14.40;;;;;13.55;24.46;99638.88;5042523;28;8859;-81
2023/03/19 09:13:46;;;;;;;;;17.00;16.80;;;;;13.83;24.77;99633.59;5081718;28;8904;-83
2023/03/19 09:16:15;;;;;;;;;21.20;17.60;;;;;14.01;24.58;99635.59;5069999;28;8866;-80
2023/03/19 09:18:44;;;;;;;;;17.40;17.20;;;;;13.97;24.30;99635.78;5080330;28;8851;-81
2023/03/19 09:21:13;;;;;;;;;17.00;16.40;;;;;14.19;24.41;99641.19;5092165;28;8855;-82
2023/03/19 09:23:44;;;;;;;;;18.60;15.80;;;;;14.28;24.27;99633.81;5091121;28;8886;-81
2023/03/19 09:26:12;;;;;;;;;11.80;11.80;;;;;14.41;24.08;99636.91;5091635;28;8852;-83
2023/03/19 09:28:41;;;;;;;;;16.40;16.40;;;;;14.51;23.95;99633.91;5051934;28;8841;-81
2023/03/19 09:31:11;;;;;;;;;20.20;18.40;;;;;14.60;24.16;99638.84;5071711;28;8886;-83
2023/03/19 09:33:40;;;;;;;;;13.80;13.40;;;;;14.76;24.00;99644.50;5079580;28;8856;-83
2023/03/19 09:36:09;;;;;;;;;14.00;10.40;;;;;14.61;23.33;99641.44;5090855;28;8847;-82
2023/03/19 09:38:38;;;;;;;;;15.20;14.40;;;;;14.66;23.49;99644.81;5090253;28;8856;-82
2023/03/19 09:41:12;;;;;;;;;16.80;16.20;;;;;14.60;23.45;99637.09;5069297;28;8954;-83
2023/03/19 09:44:01;;;;;;;;;16.60;15.60;;;;;14.51;23.38;99644.47;5080504;28;8839;-81
2023/03/19 09:46:38;;;;;;;;;20.40;19.00;;;;;14.66;23.60;99636.88;5056979;28;8872;-81
2023/03/19 09:49:17;;;;;;;;;16.00;15.80;;;;;14.85;23.51;99641.53;5086054;28;8960;-81
2023/03/19 09:51:50;;;;;;;;;14.20;14.00;;;;;14.51;23.39;99645.34;5069580;28;8974;-83
2023/03/19 09:54:27;;;;;;;;;15.00;14.80;;;;;14.04;23.97;99647.88;5085380;28;8832;-81
2023/03/19 09:56:57;;;;;;;;;17.80;17.60;;;;;14.51;23.79;99639.19;5093232;28;8856;-82
2023/03/19 09:59:28;;;;;;;;;18.00;18.00;;;;;14.65;24.29;99639.56;5074810;28;8853;-82
2023/03/19 10:02:21;;;;;;;;;18.20;18.20;;;;;14.58;23.21;99638.91;5069252;28;8858;-81
2023/03/19 10:05:04;;;;;;;;;15.80;15.80;;;;;13.44;24.11;99629.50;5088848;28;8844;-83
2023/03/19 10:07:47;;;;;;;;;15.40;15.40;;;;;14.12;25.05;99629.97;5089450;28;8868;-81
2023/03/19 10:10:28;;;;;;;;;15.00;15.00;;;;;14.59;24.32;99624.78;5116521;28;8864;-82
2023/03/19 10:13:09;;;;;;;;;17.40;14.60;;;;;14.78;23.93;99619.69;5089404;28;8861;-83
2023/03/19 10:15:40;;;;;;;;;17.80;17.80;;;;;14.80;22.94;99614.34;5068633;28;8885;-81
2023/03/19 10:18:15;;;;;;;;;15.60;15.60;;;;;14.86;22.76;99617.63;5071083;28;8943;-81
2023/03/19 10:20:52;;;;;;;;;18.00;16.20;;;;;14.93;22.48;99610.31;5069344;28;8868;-81
2023/03/19 10:23:34;;;;;;;;;15.00;14.20;;;;;15.11;22.94;99616.69;5077653;28;8891;-81
2023/03/19 10:26:06;;;;;;;;;14.40;14.40;;;;;15.23;21.57;99616.22;5091424;28;8858;-82
2023/03/19 10:28:36;;;;;;;;;8.80;8.80;;;;;15.20;21.35;99620.78;5089677;28;8997;-82
2023/03/19 10:31:17;;;;;;;;;11.60;11.60;;;;;15.34;21.40;99617.56;5089859;28;8835;-82
2023/03/19 10:33:53;;;;;;;;;15.20;13.20;;;;;15.62;21.22;99612.94;5084836;28;8863;-81
2023/03/19 10:36:30;;;;;;;;;11.00;11.00;;;;;15.73;20.92;99611.63;5070264;28;8823;-82
2023/03/19 10:38:59;;;;;;;;;5.60;5.60;;;;;15.62;20.85;99610.31;5081557;28;9040;-82
2023/03/19 10:41:38;;;;;;;;;15.80;14.60;;;;;15.95;21.42;99606.31;5090736;28;8909;-81
2023/03/19 10:44:17;;;;;;;;;14.40;13.00;;;;;16.21;21.07;99608.69;5084403;28;8858;-81
2023/03/19 10:46:46;;;;;;;;;13.60;11.80;;;;;16.37;21.41;99592.09;5068869;28;9678;-82
2023/03/19 10:49:15;;;;;;;;;16.40;14.80;;;;;16.50;20.94;99595.13;5028533;28;8866;-83
2023/03/19 10:51:46;;;;;;;;;13.00;11.80;;;;;16.66;20.20;99600.59;5069840;28;8842;-81
2023/03/19 10:54:23;;;;;;;;;13.60;11.20;;;;;16.85;19.52;99584.66;5083038;28;8950;-82
2023/03/19 10:56:55;;;;;;;;;12.20;11.20;;;;;16.78;18.83;99589.41;5088535;28;8843;-83
2023/03/19 10:59:32;;;;;;;;;13.20;13.20;;;;;16.95;18.47;99585.97;5084482;28;8897;-83
2023/03/19 11:02:14;;;;;;;;;15.60;13.00;;;;;17.10;18.91;99585.25;5055277;28;8836;-82
2023/03/19 11:04:42;;;;;;;;;14.20;14.00;;;;;17.27;19.79;99571.19;5071272;28;8838;-83
2023/03/19 11:07:13;;;;;;;;;18.00;15.40;;;;;17.26;19.48;99572.13;5069861;28;8858;-80
2023/03/19 11:09:46;;;;;;;;;16.00;11.80;;;;;17.32;19.12;99563.00;5037172;28;8959;-84
2023/03/19 11:12:20;;;;;;;;;14.20;14.20;;;;;17.29;18.35;99566.66;5056081;28;8850;-83
2023/03/19 11:14:52;;;;;;;;;11.20;10.00;;;;;17.45;18.43;99561.44;5035964;28;8886;-80
2023/03/19 11:17:24;;;;;;;;;10.00;10.00;;;;;17.64;17.63;99557.88;5069078;28;8860;-81
2023/03/19 11:19:55;;;;;;;;;14.20;12.60;;;;;17.77;17.88;99553.66;5072197;28;8879;-82
2023/03/19 11:22:27;;;;;;;;;10.60;10.60;;;;;17.95;18.20;99550.06;5093131;28;8843;-82
2023/03/19 11:24:59;;;;;;;;;13.00;12.80;;;;;18.09;18.13;99551.19;5085037;28;8972;-81
2023/03/19 11:27:32;;;;;;;;;11.80;11.80;;;;;18.24;18.36;99545.06;5069504;28;8906;-83
2023/03/19 11:30:08;;;;;;;;;13.60;12.80;;;;;18.40;18.33;99538.91;5088985;28;8999;-83
2023/03/19 11:33:12;;;;;;;;;13.60;13.60;;;;;18.43;18.41;99541.44;5086045;28;8872;-82
2023/03/19 11:35:49;;;;;;;;;14.60;14.60;;;;;18.59;18.07;99534.34;5026680;28;9653;-82
2023/03/19 11:38:25;;;;;;;;;13.40;12.80;;;;;18.65;16.69;99535.81;5033087;28;8976;-82
2023/03/19 11:41:05;;;;;;;;;15.00;14.40;;;;;18.58;17.11;99531.75;5029623;28;9093;-83
2023/03/19 11:43:44;;;;;;;;;14.80;14.60;;;;;18.79;17.37;99529.75;5046051;28;9099;-82
2023/03/19 11:46:27;;;;;;;;;17.60;16.60;;;;;18.90;17.75;99530.84;5046502;28;9106;-80
2023/03/19 11:49:27;;;;;;;;;16.20;13.40;;;;;18.75;16.74;99524.53;4997185;28;8850;-83
2023/03/19 11:52:04;;;;;;;;;14.00;14.00;;;;;18.83;16.52;99521.50;5048085;28;8865;-82
2023/03/19 11:54:44;;;;;;;;;18.60;15.80;;;;;19.07;16.92;99529.06;5031068;28;8961;-81
2023/03/19 11:57:22;;;;;;;;;21.80;19.80;;;;;18.69;17.01;99530.22;5025130;28;8955;-82